createdAt,value
2018-12-03T00:00:55.767Z,20.50
2018-12-03T00:06:18.978Z,20.47
2018-12-03T00:11:55.800Z,20.49
2018-12-03T00:14:24.477Z,20.47
2018-12-03T00:16:53.192Z,20.49
2018-12-03T00:22:30.096Z,20.51
2018-12-03T00:27:52.321Z,20.52
2018-12-03T00:36:04.992Z,20.52
2018-12-03T00:38:52.509Z,20.50
2018-12-03T00:49:15.455Z,20.46
2018-12-03T00:52:02.965Z,20.44
2018-12-03T00:54:50.433Z,20.46
2018-12-03T00:57:37.922Z,20.42
2018-12-03T01:03:16.338Z,20.48
2018-12-03T01:06:03.815Z,20.46
2018-12-03T01:11:27.412Z,20.42
2018-12-03T01:16:50.490Z,20.43
2018-12-03T01:27:28.693Z,20.46
2018-12-03T01:30:16.182Z,20.45
2018-12-03T01:35:39.184Z,20.43
2018-12-03T01:38:26.680Z,20.45
2018-12-03T01:41:14.159Z,20.43
2018-12-03T01:44:01.636Z,20.42
2018-12-03T01:46:50.721Z,20.46
2018-12-03T01:54:49.735Z,20.49
2018-12-03T01:57:18.442Z,20.49
2018-12-03T01:59:47.196Z,20.48
2018-12-03T02:02:34.686Z,20.45
2018-12-03T02:08:11.479Z,20.46
2018-12-03T02:10:40.162Z,20.45
2018-12-03T02:16:03.390Z,20.48
2018-12-03T02:18:50.861Z,20.48
2018-12-03T02:26:38.465Z,20.42
2018-12-03T02:37:16.885Z,20.45
2018-12-03T02:48:08.637Z,20.46
2018-12-03T02:53:31.533Z,20.48
2018-12-03T02:56:19.015Z,20.43
2018-12-03T03:01:23.301Z,20.43
2018-12-03T03:06:27.694Z,20.44
2018-12-03T03:09:15.241Z,20.47
2018-12-03T03:17:31.589Z,20.46
2018-12-03T03:23:08.377Z,20.48
2018-12-03T03:31:21.003Z,20.40
2018-12-03T03:44:35.824Z,20.47
2018-12-03T03:52:52.142Z,20.48
2018-12-03T03:55:39.622Z,20.46
2018-12-03T03:58:08.288Z,20.45
2018-12-03T04:00:37.110Z,20.43
2018-12-03T04:03:05.793Z,20.46
2018-12-03T04:05:34.506Z,20.45
2018-12-03T04:08:03.182Z,20.50
2018-12-03T04:10:31.877Z,20.43
2018-12-03T04:13:00.555Z,20.44
2018-12-03T04:15:29.221Z,20.44
2018-12-03T04:17:57.919Z,20.44
2018-12-03T04:20:26.601Z,20.43
2018-12-03T04:22:55.731Z,20.41
2018-12-03T04:25:24.409Z,20.40
2018-12-03T04:27:53.105Z,20.39
2018-12-03T04:30:22.289Z,20.34
2018-12-03T04:32:51.355Z,20.43
2018-12-03T04:35:20.160Z,20.37
2018-12-03T04:37:48.938Z,20.39
2018-12-03T04:40:17.960Z,20.43
2018-12-03T04:42:46.747Z,20.43
2018-12-03T04:45:16.078Z,20.46
2018-12-03T04:47:44.998Z,20.46
2018-12-03T04:50:23.098Z,20.46
2018-12-03T04:52:51.942Z,20.44
2018-12-03T04:55:21.049Z,20.48
2018-12-03T04:57:49.956Z,20.45
2018-12-03T05:00:19.345Z,20.41
2018-12-03T05:02:57.344Z,20.46
2018-12-03T05:05:26.125Z,20.41
2018-12-03T05:07:55.037Z,20.40
2018-12-03T05:10:23.731Z,20.45
2018-12-03T05:12:53.209Z,20.44
2018-12-03T05:15:21.893Z,20.43
2018-12-03T05:17:50.565Z,20.47
2018-12-03T05:20:19.878Z,20.43
2018-12-03T05:22:48.549Z,20.44
2018-12-03T05:25:19.439Z,20.43
2018-12-03T05:27:47.765Z,20.44
2018-12-03T05:30:17.094Z,20.36
2018-12-03T05:32:46.109Z,20.38
2018-12-03T05:35:24.462Z,20.40
2018-12-03T05:37:53.149Z,20.39
2018-12-03T05:40:25.432Z,20.36
2018-12-03T05:42:54.141Z,20.40
2018-12-03T05:45:22.845Z,20.36
2018-12-03T05:47:51.624Z,20.39
2018-12-03T05:50:20.245Z,20.39
2018-12-03T05:52:49.102Z,20.37
2018-12-03T05:55:17.836Z,20.37
2018-12-03T05:57:46.645Z,20.40
2018-12-03T06:00:18.993Z,20.45
2018-12-03T06:02:47.661Z,20.41
2018-12-03T06:05:16.484Z,20.42
2018-12-03T06:07:45.226Z,20.41
2018-12-03T06:10:17.239Z,20.41
2018-12-03T06:12:45.921Z,20.42
2018-12-03T06:15:15.149Z,20.39
2018-12-03T06:17:43.814Z,20.38
2018-12-03T06:20:13.066Z,20.41
2018-12-03T06:22:41.743Z,20.44
2018-12-03T06:25:11.191Z,20.40
2018-12-03T06:27:39.872Z,20.43
2018-12-03T06:30:15.257Z,20.39
2018-12-03T06:32:43.937Z,20.39
2018-12-03T06:35:13.114Z,20.42
2018-12-03T06:37:41.840Z,20.36
2018-12-03T06:40:23.290Z,20.41
2018-12-03T06:42:52.055Z,20.43
2018-12-03T06:45:21.296Z,20.36
2018-12-03T06:47:59.606Z,20.38
2018-12-03T06:50:28.362Z,20.38
2018-12-03T06:52:57.033Z,20.38
2018-12-03T06:55:25.710Z,20.39
2018-12-03T06:57:54.368Z,20.39
2018-12-03T07:00:23.445Z,20.41
2018-12-03T07:02:52.108Z,20.40
2018-12-03T07:05:20.794Z,20.48
2018-12-03T07:07:50.171Z,20.48
2018-12-03T07:10:19.462Z,20.52
2018-12-03T07:12:48.906Z,20.52
2018-12-03T07:15:21.271Z,20.51
2018-12-03T07:17:50.400Z,20.49
2018-12-03T07:20:19.089Z,20.54
2018-12-03T07:22:47.838Z,20.55
2018-12-03T07:25:16.511Z,20.56
2018-12-03T07:27:45.207Z,20.56
2018-12-03T07:30:22.944Z,20.55
2018-12-03T07:32:51.827Z,20.60
2018-12-03T07:35:20.837Z,20.58
2018-12-03T07:37:49.862Z,20.61
2018-12-03T07:40:18.554Z,20.58
2018-12-03T07:42:47.218Z,20.58
2018-12-03T07:45:22.406Z,20.57
2018-12-03T07:47:51.174Z,20.55
2018-12-03T07:50:20.393Z,20.52
2018-12-03T07:52:49.110Z,20.49
2018-12-03T07:55:18.393Z,20.50
2018-12-03T07:58:06.717Z,20.51
2018-12-03T08:00:45.378Z,20.56
2018-12-03T08:03:14.028Z,20.57
2018-12-03T08:05:42.817Z,20.56
2018-12-03T08:08:12.747Z,20.55
2018-12-03T08:10:42.157Z,20.48
2018-12-03T08:13:11.541Z,20.56
2018-12-03T08:15:41.221Z,20.53
2018-12-03T08:18:12.334Z,20.55
2018-12-03T08:20:45.489Z,20.56
2018-12-03T08:23:24.716Z,20.56
2018-12-03T08:25:53.516Z,20.56
2018-12-03T08:28:22.286Z,20.59
2018-12-03T08:30:51.110Z,20.57
2018-12-03T08:33:19.869Z,20.60
2018-12-03T08:35:48.661Z,20.60
2018-12-03T08:38:17.417Z,20.59
2018-12-03T08:40:46.223Z,20.58
2018-12-03T08:43:15.036Z,20.57
2018-12-03T08:45:46.145Z,20.56
2018-12-03T08:48:15.048Z,20.55
2018-12-03T08:50:48.069Z,20.54
2018-12-03T08:53:18.330Z,20.57
2018-12-03T08:55:47.340Z,20.63
2018-12-03T08:58:16.779Z,20.63
2018-12-03T09:00:46.363Z,20.69
2018-12-03T09:03:16.335Z,20.66
2018-12-03T09:05:45.345Z,20.65
2018-12-03T09:08:14.261Z,20.68
2018-12-03T09:10:43.520Z,20.63
2018-12-03T09:13:15.781Z,20.63
2018-12-03T09:15:46.654Z,20.64
2018-12-03T09:18:15.449Z,20.63
2018-12-03T09:20:44.275Z,20.62
2018-12-03T09:23:13.183Z,20.61
2018-12-03T09:25:41.985Z,20.63
2018-12-03T09:28:12.014Z,20.57
2018-12-03T09:30:40.905Z,20.59
2018-12-03T09:33:09.761Z,20.07
2018-12-03T09:35:38.531Z,20.65
2018-12-03T09:38:07.359Z,20.66
2018-12-03T09:40:36.214Z,20.59
2018-12-03T09:43:05.124Z,20.58
2018-12-03T09:45:34.117Z,20.58
2018-12-03T09:48:03.004Z,20.61
2018-12-03T09:50:31.879Z,20.60
2018-12-03T09:53:00.675Z,20.64
2018-12-03T09:55:30.256Z,20.63
2018-12-03T10:00:55.707Z,20.70
2018-12-03T10:06:33.788Z,20.74
2018-12-03T10:09:21.348Z,20.73
2018-12-03T10:17:23.694Z,20.61
2018-12-03T10:25:17.729Z,20.59
2018-12-03T10:30:41.416Z,20.61
2018-12-03T10:33:28.954Z,20.60
2018-12-03T10:39:09.181Z,20.68
2018-12-03T10:44:46.251Z,20.74
2018-12-03T10:47:33.776Z,20.72
2018-12-03T10:52:57.375Z,20.73
2018-12-03T10:58:16.055Z,20.72
2018-12-03T11:04:11.623Z,20.70
2018-12-03T11:06:40.433Z,20.72
2018-12-03T11:12:03.631Z,20.70
2018-12-03T11:17:12.277Z,20.74
2018-12-03T11:22:22.101Z,20.72
2018-12-03T11:30:26.045Z,20.71
2018-12-03T11:35:31.400Z,20.71
2018-12-03T11:38:18.977Z,20.75
2018-12-03T11:41:06.553Z,20.72
2018-12-03T11:43:54.096Z,20.69
2018-12-03T11:49:12.558Z,20.70
2018-12-03T11:54:49.846Z,20.71
2018-12-03T12:00:26.824Z,20.72
2018-12-03T12:05:45.401Z,20.75
2018-12-03T12:08:33.308Z,20.74
2018-12-03T12:11:20.941Z,20.67
2018-12-03T12:13:49.730Z,20.70
2018-12-03T12:16:37.349Z,20.71
2018-12-03T12:19:24.900Z,20.72
2018-12-03T12:24:51.804Z,20.71
2018-12-03T12:27:20.605Z,20.71
2018-12-03T12:29:49.443Z,20.71
2018-12-03T12:35:13.069Z,20.73
2018-12-03T12:40:36.295Z,20.75
2018-12-03T12:43:05.063Z,20.73
2018-12-03T12:48:17.874Z,20.74
2018-12-03T12:53:22.697Z,20.73
2018-12-03T13:01:22.529Z,20.72
2018-12-03T13:06:59.794Z,20.69
2018-12-03T13:12:08.754Z,20.72
2018-12-03T13:14:37.533Z,20.71
2018-12-03T13:20:33.509Z,20.71
2018-12-03T13:25:38.443Z,20.64
2018-12-03T13:28:07.247Z,20.68
2018-12-03T13:33:44.195Z,20.68
2018-12-03T13:39:23.191Z,20.69
2018-12-03T13:44:42.828Z,20.69
2018-12-03T13:47:11.848Z,20.70
2018-12-03T13:52:48.904Z,20.75
2018-12-03T13:55:18.297Z,20.72
2018-12-03T14:00:42.114Z,20.73
2018-12-03T14:03:29.688Z,20.71
2018-12-03T14:06:17.235Z,20.70
2018-12-03T14:12:12.125Z,20.73
2018-12-03T14:17:54.373Z,20.74
2018-12-03T14:20:41.904Z,20.75
2018-12-03T14:23:29.456Z,20.73
2018-12-03T14:28:53.290Z,20.74
2018-12-03T14:34:35.414Z,20.74
2018-12-03T14:45:17.096Z,20.74
2018-12-03T14:48:04.681Z,20.72
2018-12-03T14:50:44.088Z,20.74
2018-12-03T14:58:42.055Z,20.75
2018-12-03T15:01:29.702Z,20.72
2018-12-03T15:06:53.615Z,20.69
2018-12-03T15:09:22.459Z,20.68
2018-12-03T15:14:45.733Z,20.71
2018-12-03T15:23:17.809Z,20.73
2018-12-03T15:26:05.409Z,20.73
2018-12-03T15:31:09.790Z,20.71
2018-12-03T15:33:57.321Z,20.69
2018-12-03T15:39:21.052Z,20.65
2018-12-03T15:44:44.661Z,20.61
2018-12-03T15:47:13.492Z,20.63
2018-12-03T15:52:50.531Z,20.65
2018-12-03T15:55:19.335Z,20.62
2018-12-03T16:00:46.061Z,20.63
2018-12-03T16:03:15.485Z,20.65
2018-12-03T16:05:44.233Z,20.66
2018-12-03T16:08:13.034Z,20.66
2018-12-03T16:10:41.790Z,20.68
2018-12-03T16:13:10.618Z,20.69
2018-12-03T16:15:39.412Z,20.67
2018-12-03T16:18:08.247Z,20.69
2018-12-03T16:20:37.134Z,20.65
2018-12-03T16:23:06.056Z,20.63
2018-12-03T16:25:34.954Z,20.62
2018-12-03T16:28:03.860Z,20.67
2018-12-03T16:30:32.722Z,20.65
2018-12-03T16:33:01.538Z,20.66
2018-12-03T16:35:30.733Z,20.70
2018-12-03T16:37:59.615Z,20.67
2018-12-03T16:40:28.468Z,20.65
2018-12-03T16:42:57.301Z,20.61
2018-12-03T16:45:26.141Z,20.64
2018-12-03T16:47:55.163Z,20.66
2018-12-03T16:50:24.100Z,20.66
2018-12-03T16:52:52.882Z,20.67
2018-12-03T16:55:21.743Z,20.67
2018-12-03T16:57:50.787Z,20.66
2018-12-03T17:00:19.665Z,20.66
2018-12-03T17:02:48.541Z,20.65
2018-12-03T17:05:17.673Z,20.67
2018-12-03T17:07:46.453Z,20.64
2018-12-03T17:10:16.196Z,20.65
2018-12-03T17:12:45.104Z,20.69
2018-12-03T17:15:13.983Z,20.64
2018-12-03T17:17:42.878Z,20.70
2018-12-03T17:20:30.448Z,20.65
2018-12-03T17:23:10.968Z,20.65
2018-12-03T17:25:39.935Z,20.60
2018-12-03T17:28:08.666Z,20.64
2018-12-03T17:30:37.477Z,20.68
2018-12-03T17:33:06.242Z,20.64
2018-12-03T17:35:35.091Z,20.63
2018-12-03T17:38:03.853Z,20.63
2018-12-03T17:40:32.642Z,20.67
2018-12-03T17:43:01.467Z,20.67
2018-12-03T17:45:30.256Z,20.67
2018-12-03T17:47:59.065Z,20.65
2018-12-03T17:50:27.857Z,20.62
2018-12-03T17:52:56.636Z,20.66
2018-12-03T17:55:25.451Z,20.63
2018-12-03T17:57:54.224Z,20.65
2018-12-03T18:00:23.010Z,20.65
2018-12-03T18:02:51.775Z,20.66
2018-12-03T18:05:20.573Z,20.67
2018-12-03T18:07:49.351Z,20.70
2018-12-03T18:10:18.195Z,20.67
2018-12-03T18:12:46.956Z,20.68
2018-12-03T18:15:15.748Z,20.69
2018-12-03T18:17:44.541Z,20.73
2018-12-03T18:20:13.289Z,20.66
2018-12-03T18:22:42.081Z,20.77
2018-12-03T18:25:10.752Z,20.76
2018-12-03T18:27:39.452Z,20.78
2018-12-03T18:30:09.023Z,20.77
2018-12-03T18:32:37.725Z,20.69
2018-12-03T18:35:06.500Z,20.65
2018-12-03T18:37:35.261Z,20.61
2018-12-03T18:40:03.952Z,20.63
2018-12-03T18:42:32.689Z,20.64
2018-12-03T18:45:01.373Z,20.66
2018-12-03T18:47:30.057Z,20.68
2018-12-03T18:49:59.922Z,20.65
2018-12-03T18:52:28.630Z,20.67
2018-12-03T18:54:57.310Z,20.63
2018-12-03T18:57:26.037Z,20.64
2018-12-03T18:59:54.726Z,20.71
2018-12-03T19:02:23.398Z,20.67
2018-12-03T19:04:52.082Z,20.62
2018-12-03T19:07:20.766Z,20.64
2018-12-03T19:09:49.471Z,20.64
2018-12-03T19:12:18.159Z,20.61
2018-12-03T19:14:46.842Z,20.63
2018-12-03T19:17:15.595Z,20.59
2018-12-03T19:19:44.454Z,20.63
2018-12-03T19:22:13.130Z,20.65
2018-12-03T19:24:41.899Z,20.65
2018-12-03T19:27:10.585Z,20.66
2018-12-03T19:29:39.250Z,20.65
2018-12-03T19:32:07.937Z,20.64
2018-12-03T19:34:36.614Z,20.67
2018-12-03T19:37:05.323Z,20.67
2018-12-03T19:39:33.996Z,20.62
2018-12-03T19:42:02.670Z,20.64
2018-12-03T19:44:31.336Z,20.66
2018-12-03T19:47:00.061Z,20.61
2018-12-03T19:49:28.770Z,20.66
2018-12-03T19:51:58.192Z,20.68
2018-12-03T19:54:26.853Z,20.69
2018-12-03T19:56:55.625Z,20.66
2018-12-03T19:59:25.272Z,20.67
2018-12-03T20:01:54.077Z,20.67
2018-12-03T20:04:39.844Z,20.71
2018-12-03T20:07:08.585Z,20.67
2018-12-03T20:09:37.250Z,20.19
2018-12-03T20:12:05.929Z,20.68
2018-12-03T20:14:34.680Z,20.68
2018-12-03T20:17:03.344Z,20.71
2018-12-03T20:19:32.037Z,20.69
2018-12-03T20:22:00.746Z,20.65
2018-12-03T20:24:29.433Z,20.63
2018-12-03T20:27:01.587Z,20.65
2018-12-03T20:29:40.805Z,20.61
2018-12-03T20:32:15.440Z,20.62
2018-12-03T20:34:53.695Z,20.65
2018-12-03T20:37:27.374Z,20.61
2018-12-03T20:40:14.884Z,20.66
2018-12-03T20:42:44.492Z,20.66
2018-12-03T20:45:16.839Z,20.66
2018-12-03T20:47:47.210Z,20.70
2018-12-03T20:50:27.119Z,20.69
2018-12-03T20:52:55.838Z,20.72
2018-12-03T20:55:29.559Z,20.69
2018-12-03T20:57:58.222Z,20.67
2018-12-03T21:00:26.901Z,20.64
2018-12-03T21:02:57.306Z,20.67
2018-12-03T21:05:26.041Z,20.66
2018-12-03T21:07:54.725Z,20.68
2018-12-03T21:10:23.489Z,20.66
2018-12-03T21:12:52.270Z,20.18
2018-12-03T21:15:20.949Z,20.70
2018-12-03T21:17:49.700Z,20.71
2018-12-03T21:20:23.393Z,20.68
2018-12-03T21:22:52.175Z,20.71
2018-12-03T21:25:20.921Z,20.73
2018-12-03T21:27:49.604Z,20.75
2018-12-03T21:30:18.316Z,20.72
2018-12-03T21:32:46.984Z,20.71
2018-12-03T21:35:15.833Z,20.69
2018-12-03T21:37:44.584Z,20.68
2018-12-03T21:40:13.258Z,20.70
2018-12-03T21:42:41.939Z,20.70
2018-12-03T21:45:10.618Z,20.72
2018-12-03T21:47:39.288Z,20.75
2018-12-03T21:50:08.014Z,20.75
2018-12-03T21:52:36.659Z,20.69
2018-12-03T21:55:05.700Z,20.71
2018-12-03T21:57:34.382Z,20.74
2018-12-03T22:00:03.087Z,20.74
2018-12-03T22:02:31.807Z,20.77
2018-12-03T22:05:00.509Z,20.73
2018-12-03T22:07:29.187Z,20.76
2018-12-03T22:09:57.866Z,20.72
2018-12-03T22:12:26.532Z,20.71
2018-12-03T22:14:55.200Z,20.69
2018-12-03T22:17:23.904Z,20.68
2018-12-03T22:19:52.596Z,20.70
2018-12-03T22:22:21.252Z,20.72
2018-12-03T22:24:49.934Z,20.70
2018-12-03T22:27:18.610Z,20.67
2018-12-03T22:29:47.302Z,20.68
2018-12-03T22:32:15.994Z,20.67
2018-12-03T22:34:44.670Z,20.67
2018-12-03T22:37:13.370Z,20.67
2018-12-03T22:39:46.409Z,20.67
2018-12-03T22:42:12.565Z,20.66
2018-12-03T22:44:41.301Z,20.66
2018-12-03T22:47:09.925Z,20.63
2018-12-03T22:49:38.592Z,20.63
2018-12-03T22:52:07.301Z,20.63
2018-12-03T22:54:36.008Z,20.61
2018-12-03T22:57:04.709Z,20.61
2018-12-03T22:59:33.375Z,20.64
2018-12-03T23:02:41.391Z,20.65
2018-12-03T23:05:09.027Z,20.68
2018-12-03T23:07:36.658Z,20.68
2018-12-03T23:10:04.282Z,20.60
2018-12-03T23:12:31.894Z,20.66
2018-12-03T23:14:59.508Z,20.66
2018-12-03T23:17:27.188Z,20.66
2018-12-03T23:19:54.820Z,20.63
2018-12-03T23:22:22.561Z,20.59
2018-12-03T23:24:50.163Z,20.65
2018-12-03T23:27:17.771Z,20.63
2018-12-03T23:29:45.416Z,20.65
2018-12-03T23:32:13.024Z,20.65
2018-12-03T23:34:40.622Z,20.67
2018-12-03T23:37:08.303Z,20.65
2018-12-03T23:39:35.928Z,20.67
2018-12-03T23:42:03.623Z,20.66
2018-12-03T23:44:31.235Z,20.54
2018-12-03T23:46:58.931Z,20.65
2018-12-03T23:49:26.539Z,20.67
2018-12-03T23:51:54.530Z,20.70
2018-12-03T23:54:22.275Z,20.66
2018-12-03T23:56:49.961Z,20.60
2018-12-03T23:59:17.581Z,20.00
